Time;durP1;ratioP1;P1;durP2;ratioP2;P2;SDS_P1;SDS_P2;PMS_P1;PMS_P2;Temp;Humidity;BMP_temperature;BMP_pressure;BME280_temperature;BME280_humidity;BME280_pressure;Samples;Min_cycle;Max_cycle;Signal;HPM_P1;HPM_P2
2024/02/06 00:00:08;;;;;;;;;;;;;;;20.38;39.93;95867.50;10505375;28;2111;-69
2024/02/06 00:05:09;;;;;;;;;;;;;;;20.36;39.87;95853.03;10504062;28;2079;-69
2024/02/06 00:10:09;;;;;;;;;;;;;;;20.34;39.93;95847.25;10506229;28;2126;-70
2024/02/06 00:15:09;;;;;;;;;;;;;;;20.32;39.73;95842.25;10488472;28;2098;-69
2024/02/06 00:20:12;;;;;;;;;;;;;;;20.30;39.76;95833.81;10494582;28;2104;-69
2024/02/06 00:25:13;;;;;;;;;;;;;;;20.28;39.71;95842.00;10504840;28;2067;-69
2024/02/06 00:30:13;;;;;;;;;;;;;;;20.25;39.55;95842.56;10506946;28;2519;-69
2024/02/06 00:35:13;;;;;;;;;;;;;;;20.24;39.70;95834.91;10509016;28;2059;-70
2024/02/06 00:40:13;;;;;;;;;;;;;;;20.23;39.63;95830.72;10493516;28;2115;-70
2024/02/06 00:45:14;;;;;;;;;;;;;;;20.21;39.38;95836.25;10511528;28;2223;-70
2024/02/06 00:50:14;;;;;;;;;;;;;;;20.18;39.25;95834.13;10489283;28;2059;-69
2024/02/06 00:55:15;;;;;;;;;;;;;;;20.17;39.55;95831.75;10488221;28;1976;-70
2024/02/06 01:00:15;;;;;;;;;;;;;;;20.17;39.33;95834.41;10522177;28;2118;-68
2024/02/06 01:05:16;;;;;;;;;;;;;;;20.15;39.31;95836.50;10504126;28;2270;-68
2024/02/06 01:10:16;;;;;;;;;;;;;;;20.14;39.05;95824.38;10504908;28;2673;-69
2024/02/06 01:15:16;;;;;;;;;;;;;;;20.12;39.14;95821.25;10520796;27;2106;-69
2024/02/06 01:20:17;;;;;;;;;;;;;;;20.09;39.17;95817.28;10509626;28;2010;-69
2024/02/06 01:25:17;;;;;;;;;;;;;;;20.07;38.95;95816.78;10512795;28;1992;-69
2024/02/06 01:30:18;;;;;;;;;;;;;;;20.06;38.83;95807.31;10515460;28;2107;-69
2024/02/06 01:35:18;;;;;;;;;;;;;;;20.05;38.83;95803.09;10511980;28;2130;-69
2024/02/06 01:40:18;;;;;;;;;;;;;;;20.04;38.67;95804.16;10510064;28;2252;-68
2024/02/06 01:45:19;;;;;;;;;;;;;;;20.02;38.80;95798.38;10516768;28;2055;-68
2024/02/06 01:50:20;;;;;;;;;;;;;;;20.02;38.73;95800.22;10520027;28;2043;-69
2024/02/06 01:55:20;;;;;;;;;;;;;;;20.00;38.69;95789.19;10517932;28;2174;-69
2024/02/06 02:00:20;;;;;;;;;;;;;;;20.00;38.58;95791.81;10516810;28;2166;-70
2024/02/06 02:05:20;;;;;;;;;;;;;;;19.97;38.65;95781.84;10531051;27;2064;-71
2024/02/06 02:10:21;;;;;;;;;;;;;;;19.96;38.45;95767.09;10532803;27;2748;-71
2024/02/06 02:15:22;;;;;;;;;;;;;;;19.95;38.42;95762.88;10501102;28;2114;-71
2024/02/06 02:20:22;;;;;;;;;;;;;;;19.93;38.54;95767.63;10521897;28;2134;-73
2024/02/06 02:25:24;;;;;;;;;;;;;;;19.92;38.47;95756.34;10503145;28;2215;-70
2024/02/06 02:30:24;;;;;;;;;;;;;;;19.90;38.21;95753.19;10519352;28;2271;-70
2024/02/06 02:35:28;;;;;;;;;;;;;;;19.89;38.27;95751.59;10518762;28;2020;-70
2024/02/06 02:40:29;;;;;;;;;;;;;;;19.88;38.35;95751.88;10519867;28;2305;-68
2024/02/06 02:45:29;;;;;;;;;;;;;;;19.86;38.26;95749.50;10500270;28;2067;-69
2024/02/06 02:50:29;;;;;;;;;;;;;;;19.86;38.21;95753.97;10515968;28;2060;-71
2024/02/06 02:55:29;;;;;;;;;;;;;;;19.86;38.10;95748.72;10512080;28;2814;-71
2024/02/06 03:00:30;;;;;;;;;;;;;;;19.83;38.26;95751.88;10510913;28;2039;-69
2024/02/06 03:05:30;;;;;;;;;;;;;;;19.82;38.30;95743.22;10521265;27;2169;-68
2024/02/06 03:10:30;;;;;;;;;;;;;;;19.81;37.99;95735.56;10509215;28;2044;-69
2024/02/06 03:15:31;;;;;;;;;;;;;;;19.81;38.04;95740.84;10509983;28;2037;-69
2024/02/06 03:20:31;;;;;;;;;;;;;;;19.81;38.17;95735.56;10491613;28;1971;-68
2024/02/06 03:25:31;;;;;;;;;;;;;;;19.78;37.96;95728.22;10524417;27;2149;-69
2024/02/06 03:30:32;;;;;;;;;;;;;;;19.78;38.03;95720.34;10511386;28;2372;-68
2024/02/06 03:35:32;;;;;;;;;;;;;;;19.77;38.23;95722.19;10509936;28;2055;-68
2024/02/06 03:40:32;;;;;;;;;;;;;;;19.76;38.03;95727.72;10528130;27;2220;-68
2024/02/06 03:45:33;;;;;;;;;;;;;;;19.75;38.19;95737.44;10524202;27;2070;-68
2024/02/06 03:50:33;;;;;;;;;;;;;;;19.74;38.19;95732.47;10506233;28;2720;-68
2024/02/06 03:55:36;;;;;;;;;;;;;;;19.74;37.95;95732.47;10505671;28;2064;-68
2024/02/06 04:00:36;;;;;;;;;;;;;;;19.72;37.85;95745.09;10509210;28;2329;-69
2024/02/06 04:05:37;;;;;;;;;;;;;;;19.71;37.93;95751.38;10508135;28;2253;-69
2024/02/06 04:10:37;;;;;;;;;;;;;;;19.71;37.84;95754.00;10506934;28;2021;-68
2024/02/06 04:15:37;;;;;;;;;;;;;;;19.70;37.85;95752.47;10488094;28;2153;-68
2024/02/06 04:20:38;;;;;;;;;;;;;;;19.69;37.86;95748.25;10520379;28;2092;-69
2024/02/06 04:25:38;;;;;;;;;;;;;;;19.67;37.69;95745.09;10511633;28;1988;-69
2024/02/06 04:30:38;;;;;;;;;;;;;;;19.67;37.79;95745.09;10503393;28;2888;-69
2024/02/06 04:35:39;;;;;;;;;;;;;;;19.67;37.98;95745.09;10509022;28;2380;-68
2024/02/06 04:40:39;;;;;;;;;;;;;;;19.63;38.04;95729.06;10490230;28;2067;-69
2024/02/06 04:45:39;;;;;;;;;;;;;;;19.65;37.89;95720.91;10521062;28;2066;-68
2024/02/06 04:50:39;;;;;;;;;;;;;;;19.63;37.78;95736.16;10508056;28;2172;-67
2024/02/06 04:55:40;;;;;;;;;;;;;;;19.63;37.64;95723.00;10509143;28;1998;-69
2024/02/06 05:00:40;;;;;;;;;;;;;;;19.62;37.66;95724.09;10507770;28;2205;-70
2024/02/06 05:05:40;;;;;;;;;;;;;;;19.60;37.80;95720.94;10504014;28;1977;-70
2024/02/06 05:10:41;;;;;;;;;;;;;;;19.63;37.73;95723.00;10504624;28;2044;-70
2024/02/06 05:15:41;;;;;;;;;;;;;;;19.65;37.57;95732.22;10504846;28;2604;-70
2024/02/06 05:20:42;;;;;;;;;;;;;;;19.71;37.65;95730.34;10514329;28;2062;-69
2024/02/06 05:25:42;;;;;;;;;;;;;;;19.80;37.40;95734.81;10503716;28;2126;-68
2024/02/06 05:30:42;;;;;;;;;;;;;;;19.88;37.50;95733.47;10485194;28;2364;-69
2024/02/06 05:35:43;;;;;;;;;;;;;;;19.95;37.35;95734.72;10484771;28;2048;-67
2024/02/06 05:40:43;;;;;;;;;;;;;;;20.05;37.08;95733.91;10502492;28;2119;-68
2024/02/06 05:45:43;;;;;;;;;;;;;;;20.11;37.05;95732.84;10506720;28;2067;-69
2024/02/06 05:50:44;;;;;;;;;;;;;;;20.18;37.09;95738.56;10503634;28;2032;-67
2024/02/06 05:55:44;;;;;;;;;;;;;;;20.23;37.10;95743.84;10515368;28;2198;-68
2024/02/06 06:00:44;;;;;;;;;;;;;;;20.27;36.80;95732.53;10485735;28;2748;-68
2024/02/06 06:05:44;;;;;;;;;;;;;;;20.32;37.03;95742.22;10502456;28;1988;-68
2024/02/06 06:10:47;;;;;;;;;;;;;;;20.37;36.82;95746.66;10501735;28;2154;-67
2024/02/06 06:15:47;;;;;;;;;;;;;;;20.42;36.93;95749.28;10502873;28;2138;-68
2024/02/06 06:20:48;;;;;;;;;;;;;;;20.42;36.69;95757.97;10503835;28;2276;-68
2024/02/06 06:25:48;;;;;;;;;;;;;;;20.47;36.74;95759.78;10509407;28;2072;-65
2024/02/06 06:30:49;;;;;;;;;;;;;;;20.50;36.79;95765.31;10520734;28;2494;-66
2024/02/06 06:35:49;;;;;;;;;;;;;;;20.51;36.64;95769.50;10488891;28;2174;-65
2024/02/06 06:40:49;;;;;;;;;;;;;;;20.53;36.25;95775.28;10508508;28;2823;-65
2024/02/06 06:45:49;;;;;;;;;;;;;;;20.54;36.75;95784.75;10489491;28;2172;-66
2024/02/06 06:50:50;;;;;;;;;;;;;;;20.58;36.53;95796.31;10468561;28;2158;-67
2024/02/06 06:55:50;;;;;;;;;;;;;;;20.60;36.85;95799.47;10506951;28;2199;-70
2024/02/06 07:00:50;;;;;;;;;;;;;;;20.62;36.84;95813.16;10521170;27;2086;-71
2024/02/06 07:05:52;;;;;;;;;;;;;;;20.64;37.07;95821.56;10508066;28;2067;-71
2024/02/06 07:10:53;;;;;;;;;;;;;;;20.68;36.84;95819.97;10508765;28;2186;-71
2024/02/06 07:15:53;;;;;;;;;;;;;;;20.69;36.89;95818.91;10507615;28;2111;-70
2024/02/06 07:20:53;;;;;;;;;;;;;;;20.71;37.07;95835.22;10508579;28;2110;-70
2024/02/06 07:25:53;;;;;;;;;;;;;;;20.74;37.11;95849.69;10489827;28;2622;-70
2024/02/06 07:30:54;;;;;;;;;;;;;;;20.76;37.05;95858.13;10507296;28;2447;-71
2024/02/06 07:35:54;;;;;;;;;;;;;;;20.76;36.64;95866.81;10504258;28;2004;-71
2024/02/06 07:40:58;;;;;;;;;;;;;;;20.78;36.83;95861.25;10507603;28;2059;-70
2024/02/06 07:45:58;;;;;;;;;;;;;;;20.80;36.64;95867.84;10508328;28;2206;-70
2024/02/06 07:50:59;;;;;;;;;;;;;;;20.79;36.48;95868.88;10489181;28;2121;-70
2024/02/06 07:56:00;;;;;;;;;;;;;;;20.83;36.58;95874.41;10509981;28;1942;-70
2024/02/06 08:01:00;;;;;;;;;;;;;;;20.87;36.51;95881.53;10506042;28;2138;-70
2024/02/06 08:06:00;;;;;;;;;;;;;;;20.84;36.45;95884.69;10505334;28;2687;-70
2024/02/06 08:11:01;;;;;;;;;;;;;;;20.90;36.05;95898.59;10517830;27;2173;-70
2024/02/06 08:16:01;;;;;;;;;;;;;;;20.89;36.16;95895.22;10512212;28;1992;-69
2024/02/06 08:21:01;;;;;;;;;;;;;;;20.94;35.56;95902.28;10506721;28;2083;-70
2024/02/06 08:26:02;;;;;;;;;;;;;;;20.98;35.63;95896.19;10508330;28;2154;-69
2024/02/06 08:31:04;;;;;;;;;;;;;;;20.97;35.92;95891.19;10506398;28;2244;-70
2024/02/06 08:36:05;;;;;;;;;;;;;;;20.99;35.69;95892.50;10505957;28;2111;-70
2024/02/06 08:41:05;;;;;;;;;;;;;;;21.02;35.60;95897.25;10505571;28;2110;-70
2024/02/06 08:46:05;;;;;;;;;;;;;;;21.00;35.88;95894.06;10519176;28;2297;-70
2024/02/06 08:51:06;;;;;;;;;;;;;;;21.03;35.76;95888.31;10504808;28;2505;-70
2024/02/06 08:56:07;;;;;;;;;;;;;;;21.01;36.02;95890.41;10486325;28;2259;-68
2024/02/06 09:01:07;;;;;;;;;;;;;;;21.05;35.65;95888.03;10505261;28;2158;-71
2024/02/06 09:06:08;;;;;;;;;;;;;;;21.04;35.87;95889.88;10484685;28;2140;-70
2024/02/06 09:11:08;;;;;;;;;;;;;;;21.09;35.60;95883.78;10505628;28;2043;-71
2024/02/06 09:16:08;;;;;;;;;;;;;;;21.09;35.60;95889.06;10485169;28;2247;-71
2024/02/06 09:21:10;;;;;;;;;;;;;;;21.13;35.52;95887.44;10504722;28;2308;-71
2024/02/06 09:26:10;;;;;;;;;;;;;;;21.14;35.75;95885.59;10500609;28;2051;-70
2024/02/06 09:31:11;;;;;;;;;;;;;;;21.16;35.00;95886.91;10499363;28;2732;-70
2024/02/06 09:36:11;;;;;;;;;;;;;;;21.15;35.65;95898.50;10503060;28;2214;-71
2024/02/06 09:41:12;;;;;;;;;;;;;;;21.19;35.50;95898.72;10508400;28;2043;-71
2024/02/06 09:46:14;;;;;;;;;;;;;;;21.21;35.02;95899.25;10503514;28;2340;-71
2024/02/06 09:51:15;;;;;;;;;;;;;;;21.21;35.42;95896.59;10506268;28;2071;-70
2024/02/06 09:56:15;;;;;;;;;;;;;;;21.22;35.21;95898.19;10518768;28;2437;-70
2024/02/06 10:01:15;;;;;;;;;;;;;;;21.20;35.17;95895.06;10503610;28;2126;-70
2024/02/06 10:06:18;;;;;;;;;;;;;;;21.24;35.24;95896.06;10520972;28;2098;-71
2024/02/06 10:11:18;;;;;;;;;;;;;;;21.24;35.15;95893.44;10510918;28;2051;-70
2024/02/06 10:16:18;;;;;;;;;;;;;;;21.22;35.72;95898.19;10523785;27;2093;-70
2024/02/06 10:21:21;;;;;;;;;;;;;;;21.22;35.80;95898.19;10524802;27;2894;-69
2024/02/06 10:26:22;;;;;;;;;;;;;;;21.23;35.82;95899.75;10511821;28;2158;-71
2024/02/06 10:31:25;;;;;;;;;;;;;;;21.24;35.41;95902.16;10511156;28;2053;-71
2024/02/06 10:36:25;;;;;;;;;;;;;;;21.26;35.62;95896.59;10509059;28;2134;-70
2024/02/06 10:41:26;;;;;;;;;;;;;;;21.28;35.48;95905.00;10510451;28;2048;-71
2024/02/06 10:46:26;;;;;;;;;;;;;;;21.27;35.66;95887.63;10490578;28;2153;-70
2024/02/06 10:51:27;;;;;;;;;;;;;;;21.28;35.74;95894.47;10508423;28;2052;-71
2024/02/06 10:56:27;;;;;;;;;;;;;;;21.28;35.79;95886.56;10523464;28;2216;-71
2024/02/06 11:01:34;;;;;;;;;;;;;;;21.29;35.57;95898.69;10510033;28;2102;-71
2024/02/06 11:06:35;;;;;;;;;;;;;;;21.29;35.81;95888.16;10506306;28;2888;-71
2024/02/06 11:11:36;;;;;;;;;;;;;;;21.29;35.81;95878.38;10488973;28;2082;-71
2024/02/06 11:16:38;;;;;;;;;;;;;;;21.30;35.86;95872.03;10490186;28;2093;-71
2024/02/06 11:21:40;;;;;;;;;;;;;;;21.31;35.72;95867.56;10512738;28;2079;-71
2024/02/06 11:26:40;;;;;;;;;;;;;;;21.33;35.77;95868.06;10510089;28;2232;-69
2024/02/06 11:31:40;;;;;;;;;;;;;;;21.32;35.45;95855.94;10510294;28;2258;-70
2024/02/06 11:36:41;;;;;;;;;;;;;;;21.32;35.58;95851.47;10520563;28;2006;-71
2024/02/06 11:41:41;;;;;;;;;;;;;;;21.32;35.60;95848.81;10507592;28;2032;-70
2024/02/06 11:46:45;;;;;;;;;;;;;;;21.31;35.45;95852.50;10506103;28;2180;-70
2024/02/06 11:51:50;;;;;;;;;;;;;;;21.32;35.71;95846.19;10505500;28;2871;-72
2024/02/06 11:56:51;;;;;;;;;;;;;;;21.31;35.93;95844.59;10505499;28;2060;-72
2024/02/06 12:01:51;;;;;;;;;;;;;;;21.31;35.67;95838.56;10509597;28;2107;-72
2024/02/06 12:07:01;;;;;;;;;;;;;;;21.31;35.87;95838.56;10488667;28;2137;-72
2024/02/06 12:12:01;;;;;;;;;;;;;;;21.31;35.65;95822.75;10506084;28;2123;-72
2024/02/06 12:17:02;;;;;;;;;;;;;;;21.29;35.90;95819.59;10508213;28;2138;-72
2024/02/06 12:22:05;;;;;;;;;;;;;;;21.26;35.67;95806.94;10509646;28;2285;-72
2024/02/06 12:27:06;;;;;;;;;;;;;;;21.25;36.03;95805.38;10487947;28;2094;-72
2024/02/06 12:32:06;;;;;;;;;;;;;;;21.23;35.77;95804.84;10518600;28;2657;-71
2024/02/06 12:37:07;;;;;;;;;;;;;;;21.22;35.89;95803.28;10486557;28;2059;-70
2024/02/06 12:42:07;;;;;;;;;;;;;;;21.20;35.83;95802.78;10506002;28;2199;-70
2024/02/06 12:47:07;;;;;;;;;;;;;;;21.19;35.93;95785.38;10505104;28;2103;-70
2024/02/06 12:52:08;;;;;;;;;;;;;;;21.20;36.15;95776.41;10485787;28;2093;-71
2024/02/06 12:57:09;;;;;;;;;;;;;;;21.20;35.93;95768.50;10503229;28;2183;-70
2024/02/06 13:02:09;;;;;;;;;;;;;;;21.19;35.97;95759.81;10515681;28;1999;-71
2024/02/06 13:07:22;;;;;;;;;;;;;;;21.20;35.81;95755.34;10504624;28;2051;-71
2024/02/06 13:12:22;;;;;;;;;;;;;;;21.19;35.74;95748.47;10504561;28;2641;-71
2024/02/06 13:17:23;;;;;;;;;;;;;;;21.19;36.21;95753.75;10507454;28;2221;-72
2024/02/06 13:22:24;;;;;;;;;;;;;;;21.18;36.01;95741.66;10487667;28;2063;-71
2024/02/06 13:27:24;;;;;;;;;;;;;;;21.19;35.78;95743.19;10504418;28;2259;-72
2024/02/06 13:32:25;;;;;;;;;;;;;;;21.20;36.16;95742.16;10516483;27;2168;-71
2024/02/06 13:37:26;;;;;;;;;;;;;;;21.21;36.13;95728.69;10499781;28;2107;-71
2024/02/06 13:42:26;;;;;;;;;;;;;;;21.23;35.95;95734.47;10524493;27;2008;-72
2024/02/06 13:47:27;;;;;;;;;;;;;;;21.24;36.11;95722.88;10511504;28;2075;-72
2024/02/06 13:52:27;;;;;;;;;;;;;;;21.30;35.86;95726.25;10510832;28;2004;-72
2024/02/06 13:57:28;;;;;;;;;;;;;;;21.29;35.81;95716.78;10510521;28;2613;-73
2024/02/06 14:02:28;;;;;;;;;;;;;;;21.30;35.95;95707.78;10510439;28;2052;-73
2024/02/06 14:07:30;;;;;;;;;;;;;;;21.31;35.94;95704.09;10511017;28;2150;-73
2024/02/06 14:12:30;;;;;;;;;;;;;;;21.32;35.95;95703.81;10510976;28;2243;-74
2024/02/06 14:17:30;;;;;;;;;;;;;;;21.33;36.14;95705.38;10515292;28;2075;-74
2024/02/06 14:22:30;;;;;;;;;;;;;;;21.33;35.85;95689.53;10491798;28;2052;-74
2024/02/06 14:27:31;;;;;;;;;;;;;;;21.34;35.67;95690.34;10492394;28;2159;-74
2024/02/06 14:32:31;;;;;;;;;;;;;;;21.29;35.84;95677.22;10509790;28;2063;-74
2024/02/06 14:37:31;;;;;;;;;;;;;;;21.25;35.94;95669.06;10510038;28;2825;-75
2024/02/06 14:42:34;;;;;;;;;;;;;;;21.22;36.21;95661.72;10509308;28;3001;-74
2024/02/06 14:47:34;;;;;;;;;;;;;;;21.19;36.01;95649.09;10510214;28;2012;-74
2024/02/06 14:52:34;;;;;;;;;;;;;;;21.17;36.07;95647.78;10508921;28;2103;-74
2024/02/06 14:57:35;;;;;;;;;;;;;;;21.17;36.08;95647.78;10510155;28;2028;-74
2024/02/06 15:02:35;;;;;;;;;;;;;;;21.15;36.28;95636.75;10509768;28;2335;-73
2024/02/06 15:07:36;;;;;;;;;;;;;;;21.15;36.20;95632.28;10509801;28;2023;-74
2024/02/06 15:12:36;;;;;;;;;;;;;;;21.14;35.80;95632.56;10510768;28;2225;-74
2024/02/06 15:17:37;;;;;;;;;;;;;;;21.17;36.13;95637.25;10496714;28;2092;-75
2024/02/06 15:22:37;;;;;;;;;;;;;;;21.15;35.80;95627.00;10514218;28;2131;-73
2024/02/06 15:27:38;;;;;;;;;;;;;;;21.17;35.77;95626.72;10515657;28;2770;-73
2024/02/06 15:32:39;;;;;;;;;;;;;;;21.18;35.69;95623.81;10507442;28;2091;-73
2024/02/06 15:37:39;;;;;;;;;;;;;;;21.19;35.49;95616.66;10490261;28;2222;-74
2024/02/06 15:42:40;;;;;;;;;;;;;;;21.20;35.59;95621.69;10493001;28;2265;-74
2024/02/06 15:47:40;;;;;;;;;;;;;;;21.22;35.68;95608.22;10510797;28;1998;-74
2024/02/06 15:52:41;;;;;;;;;;;;;;;21.22;35.77;95606.38;10517194;28;2114;-74
2024/02/06 15:57:41;;;;;;;;;;;;;;;21.22;35.71;95597.69;10494381;28;2040;-74
2024/02/06 16:02:42;;;;;;;;;;;;;;;21.24;35.41;95595.53;10507584;28;2075;-74
2024/02/06 16:07:43;;;;;;;;;;;;;;;21.25;35.50;95592.63;10487874;28;2046;-75
2024/02/06 16:12:43;;;;;;;;;;;;;;;21.27;35.25;95597.63;10506502;28;2055;-74
2024/02/06 16:17:43;;;;;;;;;;;;;;;21.27;35.24;95595.00;10493882;28;2612;-74
2024/02/06 16:22:44;;;;;;;;;;;;;;;21.26;35.23;95598.69;10510320;28;2028;-74
2024/02/06 16:27:46;;;;;;;;;;;;;;;21.28;35.24;95601.81;10507341;28;2075;-74
2024/02/06 16:32:48;;;;;;;;;;;;;;;21.27;35.09;95587.09;10502626;28;2138;-74
2024/02/06 16:37:48;;;;;;;;;;;;;;;21.28;35.06;95592.06;10521311;28;2026;-74
2024/02/06 16:42:48;;;;;;;;;;;;;;;21.30;34.97;95589.16;10507089;28;2114;-74
2024/02/06 16:47:48;;;;;;;;;;;;;;;21.30;35.01;95591.78;10493045;28;2028;-74
2024/02/06 16:52:54;;;;;;;;;;;;;;;21.31;35.08;95596.00;10507544;28;2107;-74
2024/02/06 16:57:54;;;;;;;;;;;;;;;21.31;34.94;95604.66;10520825;27;2107;-74
2024/02/06 17:02:55;;;;;;;;;;;;;;;21.31;35.00;95609.19;10486744;28;2592;-74
2024/02/06 17:07:55;;;;;;;;;;;;;;;21.32;34.68;95608.09;10491408;28;2244;-73
2024/02/06 17:12:55;;;;;;;;;;;;;;;21.32;34.72;95605.47;10507125;28;2178;-75
2024/02/06 17:17:56;;;;;;;;;;;;;;;21.32;34.43;95605.47;10507298;28;2411;-75
2024/02/06 17:22:56;;;;;;;;;;;;;;;21.31;34.79;95603.91;10505413;28;1983;-75
2024/02/06 17:27:56;;;;;;;;;;;;;;;21.32;34.92;95613.38;10507335;28;2257;-75
2024/02/06 17:32:56;;;;;;;;;;;;;;;21.31;34.48;95617.84;10505092;28;2051;-73
2024/02/06 17:37:57;;;;;;;;;;;;;;;21.31;34.74;95622.38;10497716;28;2159;-73
2024/02/06 17:42:58;;;;;;;;;;;;;;;21.32;34.58;95622.06;10483952;28;2079;-77
2024/02/06 17:47:59;;;;;;;;;;;;;;;21.37;34.44;95608.06;10506841;28;2850;-77
2024/02/06 17:52:59;;;;;;;;;;;;;;;21.44;34.41;95614.56;10503045;28;2152;-75
2024/02/06 17:57:59;;;;;;;;;;;;;;;21.51;34.22;95611.56;10485107;28;2437;-78
2024/02/06 18:02:59;;;;;;;;;;;;;;;21.61;33.76;95606.97;10503988;28;2367;-79
2024/02/06 18:08:00;;;;;;;;;;;;;;;21.65;33.72;95612.44;10487398;28;2038;-76
2024/02/06 18:13:00;;;;;;;;;;;;;;;21.76;33.53;95598.06;10506694;28;2225;-79
2024/02/06 18:18:01;;;;;;;;;;;;;;;21.79;33.20;95589.56;10519080;28;2007;-75
2024/02/06 18:23:01;;;;;;;;;;;;;;;21.83;33.53;95593.25;10491065;28;2046;-84
2024/02/06 18:28:01;;;;;;;;;;;;;;;21.89;33.29;95594.72;10513320;28;2611;-79
2024/02/06 18:33:05;;;;;;;;;;;;;;;21.91;33.28;95591.84;10524737;27;2067;-74
2024/02/06 18:38:06;;;;;;;;;;;;;;;21.92;33.19;95580.19;10508321;28;2044;-76
2024/02/06 18:43:06;;;;;;;;;;;;;;;21.95;33.29;95575.13;10477888;28;2178;-78
2024/02/06 18:48:06;;;;;;;;;;;;;;;21.93;33.72;95587.06;10503502;28;2043;-70
2024/02/06 18:53:07;;;;;;;;;;;;;;;21.95;33.25;95575.13;10505656;28;2150;-71
2024/02/06 18:58:07;;;;;;;;;;;;;;;21.98;33.46;95568.50;10522436;27;2044;-71
2024/02/06 19:03:07;;;;;;;;;;;;;;;21.99;33.21;95572.72;10506966;28;1949;-73
2024/02/06 19:08:08;;;;;;;;;;;;;;;22.03;33.33;95579.75;10506166;28;2132;-73
2024/02/06 19:13:08;;;;;;;;;;;;;;;22.03;33.29;95566.56;10489135;28;2116;-72
2024/02/06 19:18:10;;;;;;;;;;;;;;;22.10;33.00;95566.19;10488558;28;2847;-70
2024/02/06 19:23:11;;;;;;;;;;;;;;;22.09;32.79;95575.19;10509777;28;2115;-74
2024/02/06 19:28:12;;;;;;;;;;;;;;;22.15;32.82;95559.00;10506723;28;2209;-74
2024/02/06 19:33:14;;;;;;;;;;;;;;;22.11;32.64;95571.22;10473079;28;2158;-75
2024/02/06 19:38:16;;;;;;;;;;;;;;;22.07;32.31;95569.41;10522127;27;2047;-80
2024/02/06 19:43:16;;;;;;;;;;;;;;;22.06;34.33;95579.19;10502808;28;2068;-80
2024/02/06 19:48:22;;;;;;;;;;;;;;;22.10;33.81;95566.19;10506388;28;2048;-81
2024/02/06 19:53:23;;;;;;;;;;;;;;;22.10;34.73;95574.09;10520112;27;2008;-79
2024/02/06 19:58:23;;;;;;;;;;;;;;;22.03;34.91;95566.56;10479934;28;2413;-83
2024/02/06 20:03:24;;;;;;;;;;;;;;;21.93;34.99;95566.69;10509298;28;2309;-83
2024/02/06 20:08:29;;;;;;;;;;;;;;;21.87;35.85;95567.84;10508556;28;2099;-82
2024/02/06 20:13:29;;;;;;;;;;;;;;;21.88;34.91;95558.88;10508854;28;2095;-82
2024/02/06 20:18:30;;;;;;;;;;;;;;;21.82;35.58;95560.03;10507732;28;2035;-79
2024/02/06 20:23:30;;;;;;;;;;;;;;;21.74;35.54;95550.09;10514811;28;2095;-82
2024/02/06 20:28:30;;;;;;;;;;;;;;;21.76;35.51;95567.16;10504086;28;2259;-70
2024/02/06 20:33:31;;;;;;;;;;;;;;;21.68;35.89;95559.09;10507851;28;2172;-79
2024/02/06 20:38:31;;;;;;;;;;;;;;;21.61;34.23;95563.97;10513620;28;2060;-82
2024/02/06 20:43:31;;;;;;;;;;;;;;;21.56;33.42;95561.38;10514208;28;2024;-82
2024/02/06 20:48:32;;;;;;;;;;;;;;;21.52;33.17;95560.38;10523862;28;2511;-77
2024/02/06 20:53:33;;;;;;;;;;;;;;;21.52;33.13;95557.75;10483994;28;2211;-68
2024/02/06 20:58:33;;;;;;;;;;;;;;;21.56;33.71;95556.09;10501792;28;2055;-71
2024/02/06 21:03:33;;;;;;;;;;;;;;;21.50;35.19;95550.13;10503837;28;2158;-72
2024/02/06 21:08:34;;;;;;;;;;;;;;;21.43;35.61;95536.50;10508152;28;1980;-72
2024/02/06 21:13:34;;;;;;;;;;;;;;;21.39;35.68;95540.75;10502507;28;2024;-71
2024/02/06 21:18:35;;;;;;;;;;;;;;;21.35;36.19;95533.72;10489321;28;2065;-71
2024/02/06 21:23:36;;;;;;;;;;;;;;;21.28;36.43;95544.63;10505939;28;2211;-72
2024/02/06 21:28:36;;;;;;;;;;;;;;;21.20;36.48;95532.06;10504873;28;2164;-72
2024/02/06 21:33:37;;;;;;;;;;;;;;;21.14;36.63;95529.75;10507777;28;2117;-73
2024/02/06 21:38:37;;;;;;;;;;;;;;;21.08;36.76;95538.81;10486222;28;2779;-72
2024/02/06 21:43:39;;;;;;;;;;;;;;;21.01;37.14;95523.28;10503644;28;2072;-72
2024/02/06 21:48:41;;;;;;;;;;;;;;;21.01;36.79;95534.63;10505320;28;2143;-72
2024/02/06 21:53:41;;;;;;;;;;;;;;;20.95;35.66;95533.13;10507177;28;2083;-73
2024/02/06 21:58:41;;;;;;;;;;;;;;;20.92;37.13;95531.03;10506661;28;2184;-72
2024/02/06 22:03:42;;;;;;;;;;;;;;;20.86;38.42;95526.88;10511564;28;2460;-71
2024/02/06 22:08:44;;;;;;;;;;;;;;;20.83;37.91;95516.13;10513203;28;2020;-71
2024/02/06 22:13:44;;;;;;;;;;;;;;;20.81;37.88;95521.66;10508620;28;2191;-73
2024/02/06 22:18:45;;;;;;;;;;;;;;;20.79;37.85;95518.50;10509027;28;2517;-73
2024/02/06 22:23:45;;;;;;;;;;;;;;;20.73;37.82;95511.72;10516745;28;2036;-75
2024/02/06 22:28:45;;;;;;;;;;;;;;;20.71;36.48;95511.22;10491944;28;2028;-73
2024/02/06 22:33:46;;;;;;;;;;;;;;;20.66;35.33;95519.19;10512375;28;2107;-73
2024/02/06 22:38:48;;;;;;;;;;;;;;;20.63;35.00;95522.38;10511663;28;2262;-73
2024/02/06 22:43:48;;;;;;;;;;;;;;;20.60;34.59;95512.41;10493684;28;2166;-73
2024/02/06 22:48:49;;;;;;;;;;;;;;;20.57;34.78;95512.97;10489820;28;2118;-74
2024/02/06 22:53:49;;;;;;;;;;;;;;;20.55;34.33;95512.44;10510562;28;2023;-74
2024/02/06 22:58:49;;;;;;;;;;;;;;;20.53;33.80;95506.69;10491233;28;2051;-73
2024/02/06 23:03:49;;;;;;;;;;;;;;;20.52;34.31;95499.06;10509997;28;2245;-73
2024/02/06 23:08:50;;;;;;;;;;;;;;;20.49;33.71;95502.25;10490877;28;2659;-74
2024/02/06 23:13:50;;;;;;;;;;;;;;;20.47;33.83;95497.25;10488675;28;2070;-72
2024/02/06 23:18:51;;;;;;;;;;;;;;;20.46;33.74;95489.66;10512951;28;2180;-73
2024/02/06 23:23:51;;;;;;;;;;;;;;;20.43;34.61;95488.34;10511473;28;1995;-74
2024/02/06 23:28:52;;;;;;;;;;;;;;;20.42;33.52;95473.63;10507370;28;1982;-74
2024/02/06 23:33:52;;;;;;;;;;;;;;;20.41;34.46;95474.69;10510115;28;2127;-73
2024/02/06 23:38:53;;;;;;;;;;;;;;;20.40;36.47;95474.97;10509947;28;2055;-74
2024/02/06 23:43:53;;;;;;;;;;;;;;;20.39;36.92;95468.91;10506545;28;2059;-73
2024/02/06 23:48:54;;;;;;;;;;;;;;;20.38;37.38;95458.66;10519894;27;2147;-74
2024/02/06 23:53:54;;;;;;;;;;;;;;;20.35;37.59;95449.47;10508012;28;2107;-72
2024/02/06 23:58:54;;;;;;;;;;;;;;;20.32;38.44;95436.09;10485654;28;3082;-72
